EGJJ Airport Information

Runway Information
Runway 08 Length 5597 ft width 148 ft
Elevation 270 ft Threshold 200 ft Heading 83
Runway 26 Length 5597 ft Width 148 ft
Elevation 271 ft Threshold 299 ft Heading 263
Airport Frequencies
Type APP Name APP Frequency 120.3 MHZ
Type ATIS Name INFO Frequency 112.2 MHZ
Type GND Name GND Frequency 121.9 MHZ
Type RDR Name RDR Frequency 118.55 MHZ
Type TWR Name TWR Frequency 119.45 MHZ
Airport Navaids
Type VOR-DME Name Jersey Frequency 112200 KHZ
Airport Weather Information & NOTAM
ADDS - METARS form results

(2145 UTC 24 June 2022)
Data provider http://aviationweather.gov/metar/data/
 
METAR text: EGJJ 242120Z AUTO 25018G28KT 9999 FEW040/// 14/12 Q1007
Conditions at: EGJJ (JERSEY AIRPORT , JE) observed 2120 UTC 24 June 2022
Temperature: 14.0°C (57°F)
Dewpoint: 12.0°C (54°F) [RH = 88%]
Pressure (altimeter): 29.73 inches Hg (1007.0 mb)
Winds: from the WSW (250 degrees) at 21 MPH (18 knots; 9.3 m/s)
gusting to 32 MPH (28 knots; 14.4 m/s)
Visibility: 6 or more miles (10+ km)
Ceiling: at least 12,000 feet AGL
Clouds: few clouds at 4000 feet AGL
Weather: no significant weather observed at this time

METAR text: EGJJ 242050Z 26020KT 9999 FEW015 14/12 Q1007
Conditions at: EGJJ (JERSEY AIRPORT , JE) observed 2050 UTC 24 June 2022
Temperature: 14.0°C (57°F)
Dewpoint: 12.0°C (54°F) [RH = 88%]
Pressure (altimeter): 29.73 inches Hg (1007.0 mb)
Winds: from the W (260 degrees) at 23 MPH (20 knots; 10.3 m/s)
Visibility: 6 or more miles (10+ km)
Ceiling: at least 12,000 feet AGL
Clouds: few clouds at 1500 feet AGL
Weather: no significant weather observed at this time

Forecast for: EGJJ (JERSEY AIRPORT , JE)
Text: TAF EGJJ 241959Z 2421/2506 26016KT 9999 FEW011
Forecast period: 2100 UTC 24 June 2022 to 0400 UTC 25 June 2022
Forecast type: FROM: standard forecast or significant change
Winds: from the W (260 degrees) at 18 MPH (16 knots; 8.2 m/s)
Visibility: 6 or more miles (10+ km)
Ceiling: at least 12,000 feet AGL
Clouds: few clouds at 1100 feet AGL
Weather: no significant weather forecast for this period
Text: BECMG 2504/2506 20012KT
Forecast period: 0400 to 0600 UTC 25 June 2022
Forecast type: BECOMING: Conditions expected to become as follows by 0600 UTC 25 June 2022
Winds: from the SSW (200 degrees) at 14 MPH (12 knots; 6.2 m/s)
Visibility: 6 or more miles (10+ km)
Ceiling: at least 12,000 feet AGL
Clouds: few clouds at 1100 feet AGL
Weather: no significant weather forecast for this period